createdAt,value
2023-03-28T00:02:52.979Z,1.27
2023-03-28T00:07:56.895Z,1.33
2023-03-28T00:13:00.582Z,1.30
2023-03-28T00:18:09.580Z,1.57
2023-03-28T00:23:14.003Z,1.43
2023-03-28T00:28:17.128Z,1.50
2023-03-28T00:33:21.944Z,1.40
2023-03-28T00:38:27.568Z,1.60
2023-03-28T00:43:41.770Z,1.50
2023-03-28T00:48:50.776Z,1.50
2023-03-28T00:53:58.024Z,1.30
2023-03-28T00:59:06.682Z,1.50
2023-03-28T01:04:12.341Z,1.40
2023-03-28T01:09:17.541Z,1.50
2023-03-28T01:14:27.624Z,1.90
2023-03-28T01:19:47.950Z,1.60
2023-03-28T01:25:25.351Z,1.40
2023-03-28T01:30:53.479Z,1.13
2023-03-28T01:36:46.420Z,1.50
2023-03-28T01:41:56.291Z,1.50
2023-03-28T01:47:06.817Z,1.27
2023-03-28T01:58:53.635Z,1.90
2023-03-28T02:04:20.527Z,1.90
2023-03-28T02:09:34.356Z,1.60
2023-03-28T02:14:45.015Z,1.37
2023-03-28T02:20:28.069Z,1.70
2023-03-28T02:25:42.024Z,1.90
2023-03-28T02:31:21.339Z,1.50
2023-03-28T02:36:38.678Z,1.50
2023-03-28T02:41:54.581Z,1.30
2023-03-28T02:47:06.001Z,1.70
2023-03-28T02:52:20.192Z,1.60
2023-03-28T02:57:32.022Z,1.50
2023-03-28T03:02:38.196Z,1.47
2023-03-28T03:07:41.613Z,1.30
2023-03-28T03:12:46.343Z,1.43
2023-03-28T03:17:52.141Z,1.20
2023-03-28T03:23:01.333Z,1.50
2023-03-28T03:28:06.294Z,1.43
2023-03-28T03:33:10.728Z,1.80
2023-03-28T03:38:14.627Z,2.00
2023-03-28T03:43:22.238Z,1.90
2023-03-28T03:48:25.650Z,1.80
2023-03-28T03:53:37.501Z,2.00
2023-03-28T03:58:47.694Z,2.33
2023-03-28T04:03:51.928Z,1.70
2023-03-28T04:09:01.542Z,1.90
2023-03-28T04:14:28.207Z,1.83
2023-03-28T04:19:51.788Z,1.93
2023-03-28T04:24:56.731Z,1.77
2023-03-28T04:30:15.530Z,2.20
2023-03-28T04:35:39.183Z,2.17
2023-03-28T04:40:44.780Z,2.80
2023-03-28T04:46:00.648Z,3.63
2023-03-28T04:51:04.263Z,2.97
2023-03-28T04:56:14.129Z,2.20
2023-03-28T05:01:19.110Z,2.27
2023-03-28T05:06:42.612Z,2.00
2023-03-28T05:11:50.892Z,2.43
2023-03-28T05:16:55.956Z,2.30
2023-03-28T05:22:21.720Z,2.07
2023-03-28T05:27:25.365Z,2.20
2023-03-28T05:32:30.360Z,2.43
2023-03-28T05:37:33.611Z,2.20
2023-03-28T05:42:40.540Z,2.10
2023-03-28T05:47:54.559Z,2.33
2023-03-28T05:52:59.765Z,2.23
2023-03-28T05:58:03.073Z,2.47
2023-03-28T06:03:17.502Z,2.57
2023-03-28T06:08:21.851Z,3.73
2023-03-28T06:14:11.264Z,3.27
2023-03-28T06:19:24.941Z,2.67
2023-03-28T06:24:31.529Z,2.50
2023-03-28T06:29:34.803Z,3.00
2023-03-28T06:34:41.395Z,2.33
2023-03-28T06:39:45.405Z,2.30
2023-03-28T06:44:48.576Z,2.20
2023-03-28T06:50:05.824Z,1.60
2023-03-28T06:55:14.023Z,2.03
2023-03-28T07:00:18.939Z,1.83
2023-03-28T07:06:05.407Z,2.07
2023-03-28T07:11:09.698Z,2.30
2023-03-28T07:16:16.803Z,2.00
2023-03-28T07:21:23.089Z,1.90
2023-03-28T07:26:32.866Z,2.27
2023-03-28T07:31:37.628Z,2.00
2023-03-28T07:36:43.388Z,1.93
2023-03-28T07:41:51.651Z,1.70
2023-03-28T07:46:55.401Z,2.27
2023-03-28T07:52:00.910Z,2.13
2023-03-28T07:57:04.545Z,2.30
2023-03-28T08:02:42.583Z,1.80
2023-03-28T08:07:52.515Z,1.93
2023-03-28T08:12:56.475Z,2.17
2023-03-28T08:18:00.199Z,2.07
2023-03-28T08:23:05.038Z,2.00
2023-03-28T08:28:28.533Z,1.90
2023-03-28T08:33:32.885Z,1.60
2023-03-28T08:38:37.735Z,1.80
2023-03-28T08:44:07.551Z,1.87
2023-03-28T08:49:14.975Z,1.67
2023-03-28T08:54:24.625Z,1.37
2023-03-28T08:59:33.722Z,1.60
2023-03-28T09:04:38.259Z,1.50
2023-03-28T09:10:05.190Z,1.50
2023-03-28T09:15:26.084Z,1.43
2023-03-28T09:20:35.176Z,1.40
2023-03-28T09:25:57.182Z,1.10
2023-03-28T09:31:02.104Z,1.10
2023-03-28T09:36:14.364Z,1.10
2023-03-28T09:41:25.569Z,0.90
2023-03-28T09:46:57.568Z,1.30
2023-03-28T09:52:24.189Z,1.20
2023-03-28T09:57:48.832Z,1.50
2023-03-28T10:02:57.103Z,1.10
2023-03-28T10:08:06.205Z,1.30
2023-03-28T10:13:25.131Z,1.40
2023-03-28T10:18:31.273Z,1.07
2023-03-28T10:24:00.910Z,1.30
2023-03-28T10:29:11.305Z,1.00
2023-03-28T10:34:27.096Z,1.10
2023-03-28T10:39:41.965Z,0.90
2023-03-28T10:45:06.773Z,1.03
2023-03-28T10:50:23.496Z,1.00
2023-03-28T10:55:32.748Z,0.93
2023-03-28T11:00:59.833Z,0.83
2023-03-28T11:06:18.669Z,0.70
2023-03-28T11:11:36.134Z,0.70
2023-03-28T11:16:50.960Z,0.43
2023-03-28T11:22:15.962Z,0.57
2023-03-28T11:27:28.814Z,1.00
2023-03-28T11:33:01.082Z,0.90
2023-03-28T11:38:11.467Z,0.90
2023-03-28T11:43:28.226Z,0.83
2023-03-28T11:48:42.116Z,0.70
2023-03-28T11:53:59.241Z,0.70
2023-03-28T11:59:12.385Z,0.70
2023-03-28T12:04:23.728Z,0.80
2023-03-28T12:09:34.489Z,0.83
2023-03-28T12:14:48.330Z,0.90
2023-03-28T12:20:09.376Z,1.00
2023-03-28T12:25:15.737Z,0.77
2023-03-28T12:30:29.256Z,0.60
2023-03-28T12:35:43.992Z,0.67
2023-03-28T12:40:59.306Z,0.80
2023-03-28T12:46:10.554Z,0.90
2023-03-28T12:51:27.763Z,1.00
2023-03-28T12:56:34.769Z,0.70
2023-03-28T13:01:49.187Z,0.80
2023-03-28T13:07:12.628Z,0.80
2023-03-28T13:12:45.040Z,0.50
2023-03-28T13:17:50.143Z,0.90
2023-03-28T13:23:00.557Z,0.90
2023-03-28T13:28:29.115Z,0.80
2023-03-28T13:33:35.502Z,0.73
2023-03-28T13:38:48.238Z,0.97
2023-03-28T13:43:56.628Z,0.90
2023-03-28T13:49:07.425Z,1.00
2023-03-28T13:54:15.718Z,0.80
2023-03-28T14:06:01.377Z,0.97
2023-03-28T14:11:40.147Z,1.00
2023-03-28T14:30:37.208Z,0.80
2023-03-28T14:36:40.243Z,0.57
2023-03-28T14:42:05.809Z,0.80
2023-03-28T14:47:35.883Z,0.80
2023-03-28T14:59:58.815Z,0.90
2023-03-28T15:05:25.840Z,0.77
2023-03-28T15:10:52.861Z,0.63
2023-03-28T15:16:16.889Z,1.00
2023-03-28T15:21:40.849Z,0.80
2023-03-28T15:27:07.878Z,0.70
2023-03-28T15:32:32.826Z,1.57
2023-03-28T15:37:58.189Z,1.17
2023-03-28T15:43:41.758Z,1.00
2023-03-28T15:49:06.838Z,1.40
2023-03-28T15:54:32.045Z,1.20
2023-03-28T15:59:58.914Z,1.40
2023-03-28T16:05:48.886Z,1.73
2023-03-28T16:11:12.892Z,1.07
2023-03-28T16:16:57.943Z,0.87
2023-03-28T16:22:31.874Z,1.10
2023-03-28T16:27:55.865Z,0.90
2023-03-28T16:33:20.817Z,0.90
2023-03-28T16:38:43.894Z,1.20
2023-03-28T16:44:13.840Z,1.37
2023-03-28T16:49:40.870Z,1.47
2023-03-28T16:55:03.858Z,1.33
2023-03-28T17:00:27.915Z,2.03
2023-03-28T17:05:55.869Z,1.60
2023-03-28T17:11:19.927Z,1.43
2023-03-28T17:16:46.930Z,1.40
2023-03-28T17:22:11.894Z,1.37
2023-03-28T17:27:34.858Z,1.30
2023-03-28T17:32:58.898Z,1.50
2023-03-28T17:38:24.856Z,1.30
2023-03-28T17:43:48.852Z,1.10
2023-03-28T17:49:12.899Z,1.50
2023-03-28T17:54:37.873Z,1.53
2023-03-28T18:00:00.898Z,1.07
2023-03-28T18:05:30.069Z,1.23
2023-03-28T18:10:54.922Z,0.87
2023-03-28T18:16:20.917Z,1.23
2023-03-28T18:21:45.098Z,1.60
2023-03-28T18:27:09.906Z,1.17
2023-03-28T18:32:32.914Z,1.30
2023-03-28T18:37:55.940Z,1.50
2023-03-28T18:43:20.923Z,2.13
2023-03-28T18:48:43.947Z,1.10
2023-03-28T18:54:06.882Z,1.87
2023-03-28T18:59:32.030Z,1.57
2023-03-28T19:04:54.961Z,1.57
2023-03-28T19:10:19.882Z,1.40
2023-03-28T19:15:44.934Z,0.90
2023-03-28T19:21:09.926Z,1.60
2023-03-28T19:26:37.101Z,1.13
2023-03-28T19:32:01.902Z,1.20
2023-03-28T19:37:24.949Z,1.37
2023-03-28T19:42:51.099Z,1.60
2023-03-28T19:48:16.147Z,1.33
2023-03-28T19:53:39.979Z,1.30
2023-03-28T19:59:06.046Z,1.07
2023-03-28T20:04:34.037Z,1.20
2023-03-28T20:10:00.203Z,1.30
2023-03-28T20:15:24.958Z,1.20
2023-03-28T20:20:57.044Z,0.90
2023-03-28T20:26:37.339Z,1.20
2023-03-28T20:32:24.221Z,1.70
2023-03-28T20:38:08.956Z,1.50
2023-03-28T20:44:14.159Z,1.30
2023-03-28T20:55:18.992Z,1.50
2023-03-28T21:06:31.885Z,1.60
2023-03-28T21:11:57.032Z,1.40
2023-03-28T21:17:34.019Z,1.30
2023-03-28T21:23:07.047Z,1.27
2023-03-28T21:28:39.383Z,1.00
2023-03-28T21:34:23.903Z,0.93
2023-03-28T21:40:38.696Z,1.00
2023-03-28T21:46:24.035Z,1.07
2023-03-28T21:51:41.139Z,0.93
2023-03-28T21:57:05.129Z,1.20
2023-03-28T22:14:04.856Z,1.03
2023-03-28T22:20:04.866Z,1.10
2023-03-28T22:25:49.259Z,0.90
2023-03-28T22:31:56.350Z,0.90
2023-03-28T22:37:48.443Z,0.90
2023-03-28T22:43:11.197Z,1.30
2023-03-28T22:48:40.073Z,1.00
2023-03-28T22:54:08.092Z,1.00
2023-03-28T22:59:35.521Z,1.10
2023-03-28T23:05:09.245Z,1.13
2023-03-28T23:10:46.582Z,0.87
2023-03-28T23:16:10.085Z,1.10
2023-03-28T23:21:35.093Z,0.87
2023-03-28T23:27:00.118Z,1.10
2023-03-28T23:32:59.041Z,1.00
2023-03-28T23:38:42.248Z,0.93
2023-03-28T23:44:41.351Z,1.20
2023-03-28T23:50:20.323Z,1.60
2023-03-28T23:56:08.581Z,1.40
